createdAt,value
2018-02-15T00:00:52.431Z,15.50
2018-02-15T00:03:18.575Z,16.20
2018-02-15T00:05:44.740Z,14.68
2018-02-15T00:08:11.645Z,16.12
2018-02-15T00:10:37.812Z,16.52
2018-02-15T00:13:04.721Z,15.30
2018-02-15T00:15:31.635Z,16.42
2018-02-15T00:17:57.831Z,15.88
2018-02-15T00:20:23.969Z,15.98
2018-02-15T00:22:50.181Z,16.23
2018-02-15T00:25:16.352Z,15.85
2018-02-15T00:27:42.531Z,14.52
2018-02-15T00:30:08.724Z,13.68
2018-02-15T00:32:34.903Z,15.85
2018-02-15T00:35:01.073Z,14.98
2018-02-15T00:37:27.996Z,14.90
2018-02-15T00:39:54.167Z,14.52
2018-02-15T00:42:20.375Z,15.20
2018-02-15T00:44:47.300Z,14.23
2018-02-15T00:47:13.460Z,14.80
2018-02-15T00:49:39.843Z,15.05
2018-02-15T00:52:05.991Z,13.25
2018-02-15T00:54:32.139Z,15.25
2018-02-15T00:56:59.119Z,14.55
2018-02-15T00:59:26.032Z,14.50
2018-02-15T01:01:52.991Z,16.52
2018-02-15T01:04:19.521Z,13.77
2018-02-15T01:06:45.695Z,15.55
2018-02-15T01:09:17.898Z,15.55
2018-02-15T01:11:46.504Z,14.80
2018-02-15T01:14:12.684Z,16.42
2018-02-15T01:16:38.854Z,14.85
2018-02-15T01:19:05.036Z,16.37
2018-02-15T01:21:31.211Z,15.15
2018-02-15T01:23:58.099Z,15.32
2018-02-15T01:26:24.265Z,15.20
2018-02-15T01:28:50.455Z,16.12
2018-02-15T01:31:16.612Z,15.90
2018-02-15T01:33:42.760Z,16.10
2018-02-15T01:36:09.675Z,17.95
2018-02-15T01:38:35.834Z,16.90
2018-02-15T01:41:01.993Z,15.95
2018-02-15T01:43:29.091Z,14.75
2018-02-15T01:45:55.287Z,16.30
2018-02-15T01:48:22.192Z,16.45
2018-02-15T01:50:48.524Z,16.80
2018-02-15T01:53:14.684Z,16.85
2018-02-15T01:55:40.855Z,19.08
2018-02-15T01:58:07.281Z,17.02
2018-02-15T02:00:34.244Z,16.35
2018-02-15T02:03:00.433Z,16.98
2018-02-15T02:05:26.599Z,16.40
2018-02-15T02:07:53.504Z,18.80
2018-02-15T02:10:19.663Z,18.75
2018-02-15T02:12:45.863Z,16.62
2018-02-15T02:15:12.072Z,17.75
2018-02-15T02:17:38.256Z,16.62
2018-02-15T02:20:04.443Z,18.58
2018-02-15T02:22:30.610Z,16.98
2018-02-15T02:24:56.763Z,17.08
2018-02-15T02:27:22.917Z,16.40
2018-02-15T02:29:49.828Z,17.50
2018-02-15T02:32:16.235Z,18.40
2018-02-15T02:34:42.412Z,17.00
2018-02-15T02:37:08.567Z,16.90
2018-02-15T02:39:35.674Z,18.73
2018-02-15T02:42:01.859Z,17.50
2018-02-15T02:44:28.758Z,17.30
2018-02-15T02:46:55.082Z,17.65
2018-02-15T02:49:21.260Z,15.95
2018-02-15T02:51:47.440Z,16.52
2018-02-15T02:54:13.625Z,15.65
2018-02-15T02:56:40.548Z,17.23
2018-02-15T02:59:07.896Z,16.52
2018-02-15T03:01:34.057Z,15.45
2018-02-15T03:04:00.224Z,15.02
2018-02-15T03:06:26.432Z,16.73
2018-02-15T03:08:52.585Z,15.55
2018-02-15T03:11:19.500Z,18.00
2018-02-15T03:13:47.704Z,16.37
2018-02-15T03:16:14.520Z,16.87
2018-02-15T03:18:40.671Z,17.48
2018-02-15T03:21:06.820Z,16.20
2018-02-15T03:23:33.727Z,16.48
2018-02-15T03:25:59.879Z,17.33
2018-02-15T03:28:26.150Z,16.85
2018-02-15T03:30:53.056Z,15.43
2018-02-15T03:33:19.248Z,16.67
2018-02-15T03:35:45.412Z,15.38
2018-02-15T03:38:11.596Z,16.52
2018-02-15T03:40:38.524Z,16.75
2018-02-15T03:43:04.695Z,17.27
2018-02-15T03:45:30.851Z,16.33
2018-02-15T03:47:57.396Z,14.40
2018-02-15T03:50:24.319Z,16.50
2018-02-15T03:52:50.487Z,14.87
2018-02-15T03:55:16.655Z,16.45
2018-02-15T03:57:42.909Z,16.73
2018-02-15T04:00:09.495Z,15.93
2018-02-15T04:02:35.659Z,17.17
2018-02-15T04:05:02.578Z,16.50
2018-02-15T04:07:28.751Z,16.50
2018-02-15T04:09:55.264Z,17.37
2018-02-15T04:12:21.460Z,15.88
2018-02-15T04:14:48.323Z,16.37
2018-02-15T04:17:14.532Z,16.80
2018-02-15T04:19:40.701Z,15.20
2018-02-15T04:22:06.876Z,16.20
2018-02-15T04:24:34.079Z,15.82
2018-02-15T04:27:01.007Z,18.15
2018-02-15T04:29:27.168Z,16.77
2018-02-15T04:31:53.367Z,14.98
2018-02-15T04:34:19.532Z,15.27
2018-02-15T04:36:45.687Z,15.85
2018-02-15T04:39:11.883Z,16.52
2018-02-15T04:41:38.044Z,16.60
2018-02-15T04:44:04.240Z,15.07
2018-02-15T04:46:31.171Z,15.65
2018-02-15T04:48:58.076Z,17.45
2018-02-15T04:51:24.271Z,15.60
2018-02-15T04:53:50.640Z,17.42
2018-02-15T04:56:17.576Z,16.73
2018-02-15T04:58:43.875Z,17.90
2018-02-15T05:01:10.331Z,16.50
2018-02-15T05:03:36.533Z,15.35
2018-02-15T05:06:02.699Z,17.85
2018-02-15T05:08:29.887Z,18.40
2018-02-15T05:10:56.043Z,17.80
2018-02-15T05:13:22.231Z,18.83
2018-02-15T05:15:48.428Z,15.93
2018-02-15T05:18:16.859Z,16.70
2018-02-15T05:20:43.700Z,17.20
2018-02-15T05:23:10.164Z,16.50
2018-02-15T05:25:36.329Z,18.15
2018-02-15T05:28:02.495Z,18.00
2018-02-15T05:30:29.422Z,18.27
2018-02-15T05:32:55.628Z,17.62
2018-02-15T05:35:21.823Z,17.87
2018-02-15T05:37:48.021Z,17.45
2018-02-15T05:40:14.188Z,18.10
2018-02-15T05:42:40.349Z,17.30
2018-02-15T05:47:34.956Z,19.42
2018-02-15T05:50:01.116Z,18.52
2018-02-15T05:52:27.272Z,16.95
2018-02-15T05:54:53.455Z,17.67
2018-02-15T05:57:19.598Z,17.35
2018-02-15T05:59:45.744Z,17.40
2018-02-15T06:02:11.947Z,18.65
2018-02-15T06:04:38.212Z,18.45
2018-02-15T06:07:04.379Z,18.60
2018-02-15T06:09:30.528Z,18.52
2018-02-15T06:11:57.446Z,18.85
2018-02-15T06:14:24.393Z,18.83
2018-02-15T06:16:52.036Z,18.27
2018-02-15T06:19:18.208Z,19.12
2018-02-15T06:21:45.156Z,18.62
2018-02-15T06:24:12.104Z,17.83
2018-02-15T06:26:38.271Z,19.67
2018-02-15T06:29:04.465Z,17.98
2018-02-15T06:31:31.383Z,18.85
2018-02-15T06:33:57.560Z,19.52
2018-02-15T06:36:23.841Z,19.33
2018-02-15T06:38:50.018Z,21.35
2018-02-15T06:41:16.228Z,18.80
2018-02-15T06:43:42.423Z,20.48
2018-02-15T06:46:09.379Z,21.12
2018-02-15T06:48:35.572Z,19.48
2018-02-15T06:51:02.809Z,20.98
2018-02-15T06:53:28.985Z,21.27
2018-02-15T06:55:55.174Z,19.67
2018-02-15T06:58:23.385Z,20.02
2018-02-15T07:00:49.711Z,19.95
2018-02-15T07:03:16.228Z,21.25
2018-02-15T07:05:42.463Z,21.48
2018-02-15T07:08:08.630Z,18.87
2018-02-15T07:10:34.805Z,22.23
2018-02-15T07:13:00.971Z,22.13
2018-02-15T07:15:27.221Z,19.67
2018-02-15T07:17:54.284Z,22.42
2018-02-15T07:20:20.551Z,22.58
2018-02-15T07:22:46.727Z,21.92
2018-02-15T07:25:12.924Z,22.50
2018-02-15T07:27:39.118Z,22.15
2018-02-15T07:30:06.780Z,22.65
2018-02-15T07:32:32.948Z,22.58
2018-02-15T07:34:59.379Z,22.75
2018-02-15T07:37:25.568Z,21.80
2018-02-15T07:39:52.504Z,22.60
2018-02-15T07:42:19.064Z,22.65
2018-02-15T07:44:45.256Z,22.83
2018-02-15T07:47:11.448Z,22.60
2018-02-15T07:49:38.675Z,25.05
2018-02-15T07:52:04.880Z,23.52
2018-02-15T07:54:31.095Z,23.65
2018-02-15T07:56:57.288Z,23.10
2018-02-15T07:59:23.528Z,22.37
2018-02-15T08:01:51.180Z,24.35
2018-02-15T08:04:18.148Z,22.83
2018-02-15T08:31:32.111Z,23.38
2018-02-15T08:33:58.252Z,23.95
2018-02-15T08:36:25.127Z,23.48
2018-02-15T08:41:43.912Z,23.90
2018-02-15T08:44:10.064Z,21.10
2018-02-15T08:46:36.235Z,23.08
2018-02-15T08:49:02.400Z,21.87
2018-02-15T08:51:28.606Z,22.13
2018-02-15T08:53:54.772Z,22.92
2018-02-15T08:56:20.995Z,23.92
2018-02-15T08:58:47.863Z,21.15
2018-02-15T09:01:14.018Z,20.67
2018-02-15T09:03:40.171Z,23.05
2018-02-15T09:06:06.479Z,21.52
2018-02-15T09:08:32.634Z,22.13
2018-02-15T09:13:52.252Z,21.20
2018-02-15T09:16:19.454Z,21.77
2018-02-15T09:18:45.616Z,21.33
2018-02-15T09:21:11.772Z,22.62
2018-02-15T09:23:38.184Z,21.95
2018-02-15T09:26:04.373Z,21.08
2018-02-15T09:28:30.531Z,22.20
2018-02-15T09:30:56.684Z,21.77
2018-02-15T09:33:22.833Z,21.35
2018-02-15T09:35:48.967Z,21.45
2018-02-15T09:38:15.132Z,20.05
2018-02-15T09:40:42.027Z,22.45
2018-02-15T09:43:08.179Z,22.33
2018-02-15T09:45:34.375Z,21.25
2018-02-15T09:48:15.491Z,20.37
2018-02-15T09:50:41.675Z,20.45
2018-02-15T09:53:07.832Z,21.55
2018-02-15T09:55:33.971Z,20.80
2018-02-15T09:58:00.132Z,20.60
2018-02-15T10:00:27.011Z,21.80
2018-02-15T10:02:53.199Z,20.88
2018-02-15T10:05:19.395Z,18.60
2018-02-15T10:07:45.990Z,22.02
2018-02-15T10:10:12.134Z,19.60
2018-02-15T10:12:39.034Z,19.83
2018-02-15T10:15:05.562Z,20.40
2018-02-15T10:17:31.717Z,19.50
2018-02-15T10:19:58.088Z,19.98
2018-02-15T10:22:25.287Z,20.70
2018-02-15T10:24:51.432Z,20.85
2018-02-15T10:27:17.604Z,20.48
2018-02-15T10:29:43.792Z,19.95
2018-02-15T10:32:09.950Z,20.83
2018-02-15T10:34:36.127Z,18.58
2018-02-15T10:37:03.027Z,19.85
2018-02-15T10:39:29.183Z,20.25
2018-02-15T10:41:55.355Z,19.98
2018-02-15T10:44:21.507Z,23.15
2018-02-15T10:46:47.663Z,21.50
2018-02-15T10:49:13.990Z,21.95
2018-02-15T10:51:40.198Z,22.67
2018-02-15T10:54:06.352Z,22.08
2018-02-15T10:56:32.555Z,20.88
2018-02-15T10:58:58.731Z,19.98
2018-02-15T11:01:31.299Z,23.38
2018-02-15T11:04:03.336Z,22.65
2018-02-15T11:06:29.545Z,24.30
2018-02-15T11:08:55.907Z,23.10
2018-02-15T11:11:37.203Z,24.15
2018-02-15T11:14:03.398Z,21.73
2018-02-15T11:16:30.303Z,25.15
2018-02-15T11:18:56.503Z,23.33
2018-02-15T11:21:22.679Z,22.58
2018-02-15T11:23:48.828Z,22.40
2018-02-15T11:26:15.018Z,24.33
2018-02-15T11:28:41.179Z,23.40
2018-02-15T11:31:07.344Z,21.45
2018-02-15T11:33:34.435Z,23.55
2018-02-15T11:39:21.479Z,22.50
2018-02-15T11:41:47.594Z,21.33
2018-02-15T11:44:13.739Z,20.90
2018-02-15T11:46:39.913Z,20.98
2018-02-15T11:49:06.815Z,19.90
2018-02-15T11:51:33.001Z,23.05
2018-02-15T11:54:00.010Z,19.45
2018-02-15T11:56:27.720Z,22.80
2018-02-15T12:01:46.028Z,21.45
2018-02-15T12:04:12.213Z,22.08
2018-02-15T12:06:39.123Z,23.58
2018-02-15T12:09:05.295Z,22.67
2018-02-15T12:11:31.443Z,23.60
2018-02-15T12:13:57.611Z,22.90
2018-02-15T12:16:23.758Z,22.37
2018-02-15T12:18:49.925Z,22.90
2018-02-15T12:21:16.854Z,25.05
2018-02-15T12:23:42.971Z,23.98
2018-02-15T12:26:09.407Z,24.73
2018-02-15T12:28:35.555Z,24.27
2018-02-15T12:31:01.700Z,25.90
2018-02-15T12:33:28.623Z,25.85
2018-02-15T12:35:54.787Z,24.77
2018-02-15T12:38:20.966Z,23.67
2018-02-15T12:40:47.128Z,25.85
2018-02-15T12:43:13.279Z,24.90
2018-02-15T12:45:39.470Z,26.90
2018-02-15T12:48:05.615Z,25.12
2018-02-15T12:50:31.770Z,25.50
2018-02-15T12:52:57.943Z,28.33
2018-02-15T12:55:24.504Z,24.87
2018-02-15T12:57:50.687Z,23.85
2018-02-15T13:00:16.870Z,25.12
2018-02-15T13:02:43.044Z,26.10
2018-02-15T13:05:09.203Z,25.83
2018-02-15T13:07:36.159Z,26.80
2018-02-15T13:10:02.572Z,25.17
2018-02-15T13:12:41.228Z,25.12
2018-02-15T13:15:20.029Z,25.55
2018-02-15T13:17:46.954Z,25.00
2018-02-15T13:20:18.011Z,23.75
2018-02-15T13:22:46.144Z,25.83
2018-02-15T13:25:12.297Z,26.42
2018-02-15T13:30:38.348Z,25.08
2018-02-15T13:33:04.524Z,26.30
2018-02-15T13:35:30.671Z,25.20
2018-02-15T13:37:56.827Z,26.10
2018-02-15T13:40:22.998Z,26.25
2018-02-15T13:42:49.906Z,26.95
2018-02-15T13:45:16.100Z,26.35
2018-02-15T13:47:42.259Z,25.27
2018-02-15T13:50:08.459Z,27.42
2018-02-15T13:55:27.796Z,28.77
2018-02-15T13:57:54.003Z,29.27
2018-02-15T14:00:20.145Z,28.77
2018-02-15T14:02:46.296Z,29.92
2018-02-15T14:05:12.631Z,27.70
2018-02-15T14:07:38.801Z,29.40
2018-02-15T14:10:05.357Z,28.55
2018-02-15T14:12:32.036Z,29.48
2018-02-15T14:14:58.187Z,27.98
2018-02-15T14:17:24.339Z,29.10
2018-02-15T14:19:50.495Z,28.48
2018-02-15T14:22:17.412Z,28.67
2018-02-15T14:24:43.556Z,29.00
2018-02-15T14:27:09.943Z,28.35
2018-02-15T14:29:36.095Z,28.50
2018-02-15T14:32:02.235Z,29.90
2018-02-15T14:34:28.404Z,30.70
2018-02-15T14:39:47.464Z,28.58
2018-02-15T14:42:13.638Z,29.55
2018-02-15T14:44:39.798Z,30.80
2018-02-15T14:47:05.984Z,29.48
2018-02-15T14:49:32.910Z,29.12
2018-02-15T14:51:59.053Z,27.80
2018-02-15T14:57:46.405Z,30.20
2018-02-15T15:00:12.564Z,28.80
2018-02-15T15:02:38.712Z,30.85
2018-02-15T15:05:04.880Z,29.45
2018-02-15T15:07:31.816Z,27.77
2018-02-15T15:09:58.746Z,27.27
2018-02-15T15:12:24.900Z,28.70
2018-02-15T15:14:51.050Z,28.12
2018-02-15T15:17:17.840Z,27.67
2018-02-15T15:19:43.984Z,29.48
2018-02-15T15:22:10.119Z,29.17
2018-02-15T15:24:36.307Z,29.35
2018-02-15T15:27:03.245Z,28.65
2018-02-15T15:29:30.137Z,30.12
2018-02-15T15:31:56.329Z,30.60
2018-02-15T15:34:23.247Z,29.60
2018-02-15T15:36:49.435Z,29.70
2018-02-15T15:39:15.887Z,28.75
2018-02-15T15:41:42.057Z,30.60
2018-02-15T15:44:08.199Z,30.45
2018-02-15T15:49:26.527Z,32.65
2018-02-15T15:51:52.723Z,29.92
2018-02-15T15:57:11.921Z,31.20
2018-02-15T15:59:38.114Z,32.78
2018-02-15T16:02:04.271Z,33.00
2018-02-15T16:04:31.172Z,33.70
2018-02-15T16:06:57.356Z,34.78
2018-02-15T16:09:24.471Z,34.28
2018-02-15T16:11:50.656Z,34.97
2018-02-15T16:14:16.905Z,35.40
2018-02-15T16:16:43.042Z,35.03
2018-02-15T16:19:09.204Z,37.28
2018-02-15T16:21:35.363Z,36.33
2018-02-15T16:24:16.480Z,36.92
2018-02-15T16:26:42.656Z,37.10
2018-02-15T16:32:02.091Z,36.65
2018-02-15T16:34:28.275Z,40.08
2018-02-15T16:36:54.415Z,38.05
2018-02-15T16:39:25.418Z,38.50
2018-02-15T16:41:51.943Z,37.78
2018-02-15T16:44:18.091Z,39.75
2018-02-15T16:46:44.284Z,38.85
2018-02-15T16:49:10.471Z,39.72
2018-02-15T16:51:36.647Z,43.05
2018-02-15T16:54:03.553Z,39.15
2018-02-15T16:56:29.695Z,40.92
2018-02-15T16:58:57.363Z,40.47
2018-02-15T17:01:23.775Z,42.13
2018-02-15T17:03:49.911Z,38.90
2018-02-15T17:06:16.091Z,40.65
2018-02-15T17:08:42.291Z,39.67
2018-02-15T17:11:08.452Z,40.30
2018-02-15T17:13:35.347Z,38.10
2018-02-15T17:16:02.312Z,38.78
2018-02-15T17:18:28.459Z,39.17
2018-02-15T17:20:54.619Z,38.10
2018-02-15T17:23:20.767Z,40.80
2018-02-15T17:25:47.651Z,41.53
2018-02-15T17:28:13.824Z,37.78
2018-02-15T17:30:39.967Z,38.90
2018-02-15T17:33:06.867Z,41.42
2018-02-15T17:35:33.019Z,40.00
2018-02-15T17:37:59.183Z,42.55
2018-02-15T17:40:25.311Z,38.60
2018-02-15T17:42:52.924Z,37.40
2018-02-15T17:45:19.172Z,38.95
2018-02-15T17:47:45.323Z,39.28
2018-02-15T17:50:11.494Z,39.15
2018-02-15T17:52:37.679Z,38.60
2018-02-15T17:55:04.616Z,39.25
2018-02-15T17:57:30.767Z,38.22
2018-02-15T17:59:56.908Z,35.63
2018-02-15T18:02:24.563Z,37.45
2018-02-15T18:05:05.739Z,36.35
2018-02-15T18:07:31.891Z,37.67
2018-02-15T18:09:58.069Z,36.47
2018-02-15T18:12:24.223Z,36.85
2018-02-15T18:14:50.464Z,35.15
2018-02-15T18:17:16.910Z,35.53
2018-02-15T18:19:43.135Z,36.30
2018-02-15T18:22:11.989Z,33.47
2018-02-15T18:24:39.056Z,33.75
2018-02-15T18:27:05.271Z,36.65
2018-02-15T18:29:32.153Z,35.00
2018-02-15T18:31:58.368Z,35.97
2018-02-15T18:34:26.812Z,34.92
2018-02-15T18:36:55.505Z,36.55
2018-02-15T18:39:22.435Z,34.92
2018-02-15T18:41:48.600Z,36.67
2018-02-15T18:44:14.804Z,35.13
2018-02-15T18:46:41.082Z,37.10
2018-02-15T18:52:14.501Z,37.90
2018-02-15T18:54:42.333Z,38.25
2018-02-15T18:57:08.942Z,35.28
2018-02-15T18:59:35.843Z,37.28
2018-02-15T19:02:02.068Z,37.30
2018-02-15T19:04:29.029Z,36.20
2018-02-15T19:06:55.937Z,37.42
2018-02-15T19:09:23.092Z,37.95
2018-02-15T19:11:49.393Z,38.95
2018-02-15T19:14:15.594Z,37.33
2018-02-15T19:16:42.524Z,38.30
2018-02-15T19:19:09.131Z,42.00
2018-02-15T19:21:35.324Z,38.97
2018-02-15T19:24:01.538Z,38.42
2018-02-15T19:26:27.967Z,40.80
2018-02-15T19:28:54.147Z,38.13
2018-02-15T19:31:20.335Z,37.47
2018-02-15T19:33:50.142Z,36.78
2018-02-15T19:36:16.327Z,39.55
2018-02-15T19:41:53.411Z,39.28
2018-02-15T19:44:19.755Z,40.08
2018-02-15T19:46:45.915Z,37.10
2018-02-15T19:49:12.070Z,41.50
2018-02-15T19:51:38.535Z,37.20
2018-02-15T19:54:04.683Z,38.70
2018-02-15T19:56:31.629Z,39.50
2018-02-15T19:58:57.815Z,41.25
2018-02-15T20:01:24.724Z,41.25
2018-02-15T20:03:50.876Z,40.60
2018-02-15T20:06:17.039Z,41.97
2018-02-15T20:08:44.365Z,44.53
2018-02-15T20:11:10.507Z,45.05
2018-02-15T20:13:36.703Z,46.20
2018-02-15T20:16:02.893Z,47.92
2018-02-15T20:18:29.795Z,47.45
2018-02-15T20:20:56.116Z,47.03
2018-02-15T20:23:22.268Z,47.88
2018-02-15T20:25:54.434Z,48.97
2018-02-15T20:28:28.399Z,50.90
2018-02-15T20:30:55.484Z,51.90
2018-02-15T20:33:21.663Z,53.17
2018-02-15T20:35:47.804Z,51.37
2018-02-15T20:38:20.696Z,53.05
2018-02-15T20:40:47.596Z,51.35
2018-02-15T20:43:13.769Z,50.22
2018-02-15T20:45:39.907Z,53.10
2018-02-15T20:48:06.086Z,51.67
2018-02-15T20:50:39.118Z,54.25
2018-02-15T20:53:11.435Z,53.70
2018-02-15T20:55:41.407Z,50.75
2018-02-15T20:58:07.587Z,50.25
2018-02-15T21:00:33.779Z,48.92
2018-02-15T21:03:00.037Z,53.42
2018-02-15T21:05:26.931Z,52.55
2018-02-15T21:07:53.095Z,50.58
2018-02-15T21:10:20.021Z,50.28
2018-02-15T21:12:46.146Z,51.72
2018-02-15T21:15:12.332Z,51.17
2018-02-15T21:17:38.491Z,51.92
2018-02-15T21:20:05.637Z,51.50
2018-02-15T21:22:31.821Z,51.08
2018-02-15T21:24:57.972Z,52.25
2018-02-15T21:27:24.858Z,49.17
2018-02-15T21:29:51.007Z,50.92
2018-02-15T21:32:17.174Z,49.70
2018-02-15T21:34:43.418Z,51.13
2018-02-15T21:37:11.028Z,49.75
2018-02-15T21:39:37.174Z,49.10
2018-02-15T21:42:03.352Z,48.22
2018-02-15T21:44:29.551Z,48.90
2018-02-15T21:46:55.729Z,46.53
2018-02-15T21:49:22.930Z,48.08
2018-02-15T21:51:49.131Z,48.85
2018-02-15T21:54:16.033Z,48.05
2018-02-15T21:56:42.196Z,45.40
2018-02-15T21:59:09.091Z,45.95
2018-02-15T22:01:35.241Z,45.72
2018-02-15T22:04:01.403Z,46.25
2018-02-15T22:06:27.579Z,44.60
2018-02-15T22:08:53.835Z,46.55
2018-02-15T22:11:20.111Z,47.97
2018-02-15T22:13:46.242Z,46.10
2018-02-15T22:16:12.419Z,45.08
2018-02-15T22:18:38.770Z,46.37
2018-02-15T22:21:04.913Z,49.03
2018-02-15T22:23:31.375Z,44.70
2018-02-15T22:25:57.630Z,43.00
2018-02-15T22:28:23.771Z,44.78
2018-02-15T22:30:50.703Z,45.03
2018-02-15T22:33:16.856Z,46.17
2018-02-15T22:35:43.026Z,45.60
2018-02-15T22:38:09.202Z,44.05
2018-02-15T22:40:36.112Z,42.83
2018-02-15T22:43:02.248Z,42.75
2018-02-15T22:45:28.497Z,44.47
2018-02-15T22:47:54.683Z,44.13
2018-02-15T22:50:21.574Z,42.38
2018-02-15T22:52:47.791Z,43.55
2018-02-15T22:55:13.938Z,41.20
2018-02-15T22:57:40.089Z,40.42
2018-02-15T23:00:06.504Z,41.10
2018-02-15T23:02:32.675Z,38.70
2018-02-15T23:04:58.886Z,40.97
2018-02-15T23:07:25.040Z,39.30
2018-02-15T23:09:51.976Z,38.50
2018-02-15T23:12:18.123Z,37.20
2018-02-15T23:14:44.252Z,37.75
2018-02-15T23:17:10.424Z,38.22
2018-02-15T23:19:36.654Z,36.55
2018-02-15T23:22:02.824Z,35.60
2018-02-15T23:24:29.809Z,35.03
2018-02-15T23:26:55.967Z,35.42
2018-02-15T23:29:22.867Z,34.72
2018-02-15T23:31:49.195Z,34.15
2018-02-15T23:34:15.355Z,33.47
2018-02-15T23:36:41.495Z,31.90
2018-02-15T23:39:07.883Z,31.45
2018-02-15T23:41:34.046Z,30.60
2018-02-15T23:44:00.191Z,30.17
2018-02-15T23:46:26.369Z,29.50
2018-02-15T23:48:52.508Z,27.35
2018-02-15T23:51:18.647Z,29.50
2018-02-15T23:53:44.907Z,28.08
2018-02-15T23:56:11.055Z,27.60
2018-02-15T23:58:38.671Z,27.30
